createdAt,value
2022-09-23T00:01:35.755Z,4.70
2022-09-23T00:04:17.563Z,4.80
2022-09-23T00:06:44.241Z,4.30
2022-09-23T00:09:13.363Z,4.50
2022-09-23T00:11:40.125Z,4.40
2022-09-23T00:14:08.802Z,3.83
2022-09-23T00:16:36.079Z,3.92
2022-09-23T00:19:03.945Z,4.25
2022-09-23T00:21:30.667Z,3.50
2022-09-23T00:23:58.376Z,4.10
2022-09-23T00:26:27.438Z,3.75
2022-09-23T00:28:54.380Z,3.67
2022-09-23T00:31:23.879Z,3.53
2022-09-23T00:33:55.925Z,3.60
2022-09-23T00:36:22.685Z,3.70
2022-09-23T00:38:52.894Z,3.72
2022-09-23T00:41:28.573Z,3.50
2022-09-23T00:44:00.195Z,3.20
2022-09-23T00:46:52.902Z,3.40
2022-09-23T00:49:28.628Z,3.35
2022-09-23T00:52:07.409Z,3.70
2022-09-23T00:54:45.600Z,3.63
2022-09-23T00:57:15.461Z,3.42
2022-09-23T00:59:42.723Z,3.33
2022-09-23T01:02:13.595Z,3.90
2022-09-23T01:04:40.755Z,3.40
2022-09-23T01:07:07.318Z,3.70
2022-09-23T01:09:36.494Z,2.85
2022-09-23T01:12:36.942Z,3.30
2022-09-23T01:15:25.109Z,3.40
2022-09-23T01:18:21.504Z,3.35
2022-09-23T01:20:54.664Z,3.00
2022-09-23T01:23:35.667Z,3.60
2022-09-23T01:26:14.520Z,3.88
2022-09-23T01:29:02.788Z,3.25
2022-09-23T01:31:46.329Z,3.58
2022-09-23T01:34:18.600Z,3.40
2022-09-23T01:37:03.456Z,3.55
2022-09-23T01:39:36.521Z,3.55
2022-09-23T01:42:10.898Z,3.05
2022-09-23T01:44:50.601Z,3.78
2022-09-23T01:47:29.818Z,3.25
2022-09-23T01:50:28.556Z,3.22
2022-09-23T01:53:03.804Z,3.40
2022-09-23T01:55:43.776Z,3.42
2022-09-23T02:04:24.430Z,3.05
2022-09-23T02:06:57.288Z,3.55
2022-09-23T02:09:35.561Z,2.85
2022-09-23T02:12:07.549Z,3.13
2022-09-23T02:14:55.116Z,3.42
2022-09-23T02:17:43.039Z,2.92
2022-09-23T02:20:14.082Z,3.15
2022-09-23T02:23:02.419Z,3.20
2022-09-23T02:25:57.612Z,2.90
2022-09-23T02:28:33.664Z,2.85
2022-09-23T02:31:36.901Z,3.03
2022-09-23T02:34:13.300Z,3.38
2022-09-23T02:37:10.935Z,3.50
2022-09-23T02:40:00.612Z,3.17
2022-09-23T02:42:45.816Z,2.92
2022-09-23T02:45:12.658Z,3.70
2022-09-23T02:47:43.270Z,3.08
2022-09-23T02:50:10.250Z,3.83
2022-09-23T02:52:37.962Z,3.25
2022-09-23T02:55:08.165Z,2.90
2022-09-23T02:57:49.921Z,3.00
2022-09-23T03:00:16.635Z,3.13
2022-09-23T03:02:55.411Z,3.58
2022-09-23T03:05:26.522Z,3.70
2022-09-23T03:08:25.008Z,3.70
2022-09-23T03:11:10.477Z,3.72
2022-09-23T03:14:16.670Z,4.22
2022-09-23T03:17:10.484Z,3.65
2022-09-23T03:20:21.012Z,4.07
2022-09-23T03:22:54.169Z,3.95
2022-09-23T03:25:23.776Z,3.65
2022-09-23T03:28:07.209Z,4.00
2022-09-23T03:33:08.543Z,3.80
2022-09-23T03:36:06.643Z,3.75
2022-09-23T03:38:39.520Z,3.25
2022-09-23T03:41:10.381Z,3.83
2022-09-23T03:43:39.057Z,3.30
2022-09-23T03:46:07.484Z,3.50
2022-09-23T03:48:34.153Z,3.85
2022-09-23T03:51:17.346Z,3.25
2022-09-23T03:53:43.951Z,3.70
2022-09-23T03:56:14.682Z,4.03
2022-09-23T03:58:48.071Z,4.07
2022-09-23T04:03:41.607Z,3.83
2022-09-23T04:06:34.968Z,3.72
2022-09-23T04:09:03.951Z,4.35
2022-09-23T04:14:26.600Z,3.58
2022-09-23T04:16:58.168Z,3.17
2022-09-23T04:19:28.406Z,3.65
2022-09-23T04:27:19.886Z,3.30
2022-09-23T04:29:47.753Z,3.90
2022-09-23T04:32:14.298Z,3.22
2022-09-23T04:34:42.886Z,3.45
2022-09-23T04:37:12.165Z,3.20
2022-09-23T04:39:38.767Z,3.50
2022-09-23T04:42:05.454Z,3.40
2022-09-23T04:44:38.228Z,4.70
2022-09-23T04:49:34.555Z,4.38
2022-09-23T04:52:05.053Z,6.22
2022-09-23T04:54:34.846Z,5.55
2022-09-23T04:57:03.660Z,5.50
2022-09-23T04:59:33.647Z,5.00
2022-09-23T05:02:00.285Z,5.40
2022-09-23T05:04:30.644Z,5.95
2022-09-23T05:07:02.856Z,6.13
2022-09-23T05:09:30.346Z,4.63
2022-09-23T05:11:56.990Z,5.25
2022-09-23T05:14:23.802Z,5.07
2022-09-23T05:16:52.722Z,5.05
2022-09-23T05:19:19.379Z,4.97
2022-09-23T05:21:50.611Z,4.40
2022-09-23T05:24:18.169Z,3.92
2022-09-23T05:26:44.781Z,4.20
2022-09-23T05:29:12.447Z,4.13
2022-09-23T05:31:41.661Z,4.00
2022-09-23T05:34:08.345Z,4.78
2022-09-23T05:36:38.740Z,4.53
2022-09-23T05:39:07.471Z,4.63
2022-09-23T05:41:34.525Z,4.55
2022-09-23T05:44:04.081Z,5.20
2022-09-23T05:46:31.443Z,4.82
2022-09-23T05:49:02.439Z,4.55
2022-09-23T05:51:32.901Z,4.65
2022-09-23T05:54:03.277Z,4.22
2022-09-23T05:56:32.500Z,4.45
2022-09-23T05:59:02.534Z,4.03
2022-09-23T06:01:35.742Z,4.10
2022-09-23T06:04:04.684Z,3.97
2022-09-23T06:06:36.777Z,4.22
2022-09-23T06:09:18.929Z,4.55
2022-09-23T06:11:46.090Z,4.80
2022-09-23T06:14:13.935Z,4.35
2022-09-23T06:17:08.686Z,4.65
2022-09-23T06:19:35.458Z,4.25
2022-09-23T06:22:02.921Z,4.40
2022-09-23T06:24:34.651Z,4.82
2022-09-23T06:27:02.934Z,4.82
2022-09-23T06:29:54.267Z,4.22
2022-09-23T06:32:23.965Z,4.30
2022-09-23T06:34:53.057Z,4.13
2022-09-23T06:37:20.813Z,4.10
2022-09-23T06:39:48.366Z,3.80
2022-09-23T06:42:15.844Z,3.95
2022-09-23T06:44:49.995Z,4.28
2022-09-23T06:47:16.643Z,4.45
2022-09-23T06:49:58.255Z,4.45
2022-09-23T06:52:42.618Z,4.88
2022-09-23T06:55:10.600Z,5.38
2022-09-23T06:57:40.800Z,4.60
2022-09-23T07:00:08.018Z,4.57
2022-09-23T07:02:50.070Z,4.78
2022-09-23T07:05:21.746Z,4.60
2022-09-23T07:07:48.771Z,4.90
2022-09-23T07:10:16.076Z,4.28
2022-09-23T07:13:04.775Z,4.38
2022-09-23T07:15:34.213Z,4.15
2022-09-23T07:18:00.773Z,3.88
2022-09-23T07:20:30.077Z,5.55
2022-09-23T07:22:56.778Z,4.40
2022-09-23T07:25:24.826Z,4.70
2022-09-23T07:27:55.404Z,4.72
2022-09-23T07:30:25.382Z,5.00
2022-09-23T07:32:54.775Z,4.43
2022-09-23T07:35:22.481Z,4.90
2022-09-23T07:38:01.345Z,5.20
2022-09-23T07:40:28.391Z,5.65
2022-09-23T07:42:55.842Z,5.50
2022-09-23T07:45:22.791Z,5.53
2022-09-23T07:47:51.653Z,4.75
2022-09-23T07:50:18.382Z,4.82
2022-09-23T07:52:44.920Z,4.55
2022-09-23T07:55:17.610Z,4.97
2022-09-23T07:57:57.007Z,4.53
2022-09-23T08:00:27.914Z,4.93
2022-09-23T08:02:54.616Z,5.18
2022-09-23T08:05:21.928Z,4.28
2022-09-23T08:07:51.850Z,4.45
2022-09-23T08:10:27.622Z,4.80
2022-09-23T08:12:54.240Z,3.85
2022-09-23T08:15:21.377Z,3.75
2022-09-23T08:17:48.300Z,4.82
2022-09-23T08:20:34.959Z,4.13
2022-09-23T08:23:05.156Z,4.07
2022-09-23T08:25:44.884Z,3.45
2022-09-23T08:28:17.946Z,3.25
2022-09-23T08:30:50.792Z,3.70
2022-09-23T08:33:23.315Z,3.25
2022-09-23T08:36:01.311Z,5.15
2022-09-23T08:38:28.435Z,3.35
2022-09-23T08:41:23.564Z,2.90
2022-09-23T08:43:57.223Z,3.65
2022-09-23T08:46:40.895Z,3.35
2022-09-23T08:49:16.482Z,3.38
2022-09-23T08:51:47.685Z,3.30
2022-09-23T08:54:17.129Z,3.47
2022-09-23T08:56:50.538Z,3.40
2022-09-23T08:59:28.105Z,3.35
2022-09-23T09:02:05.382Z,2.92
2022-09-23T09:04:35.036Z,3.10
2022-09-23T09:07:34.826Z,2.70
2022-09-23T09:10:15.894Z,3.15
2022-09-23T09:12:52.574Z,2.85
2022-09-23T09:15:24.800Z,2.88
2022-09-23T09:18:14.314Z,3.13
2022-09-23T09:20:56.397Z,2.88
2022-09-23T09:23:49.527Z,2.95
2022-09-23T09:26:28.851Z,2.80
2022-09-23T09:29:31.302Z,3.00
2022-09-23T09:31:58.939Z,3.05
2022-09-23T09:34:36.850Z,2.97
2022-09-23T09:37:17.751Z,2.80
2022-09-23T09:39:44.361Z,3.30
2022-09-23T09:42:21.290Z,3.10
2022-09-23T09:45:03.050Z,2.40
2022-09-23T09:48:06.240Z,2.90
2022-09-23T09:50:43.387Z,2.30
2022-09-23T09:53:22.218Z,2.40
2022-09-23T09:56:18.215Z,2.53
2022-09-23T09:58:48.808Z,2.65
2022-09-23T10:01:33.191Z,2.60
2022-09-23T10:04:06.322Z,2.30
2022-09-23T10:06:35.110Z,2.22
2022-09-23T10:09:07.083Z,1.88
2022-09-23T10:11:36.873Z,2.10
2022-09-23T10:14:26.099Z,1.85
2022-09-23T10:17:04.724Z,2.65
2022-09-23T10:19:36.397Z,2.72
2022-09-23T10:22:14.378Z,2.40
2022-09-23T10:24:47.632Z,2.10
2022-09-23T10:27:27.307Z,2.78
2022-09-23T10:29:56.934Z,2.50
2022-09-23T10:32:43.090Z,2.50
2022-09-23T10:35:10.599Z,1.90
2022-09-23T10:37:58.266Z,2.45
2022-09-23T10:40:58.147Z,2.40
2022-09-23T10:44:00.199Z,2.10
2022-09-23T10:46:45.125Z,2.20
2022-09-23T10:49:12.249Z,2.20
2022-09-23T10:51:56.708Z,2.10
2022-09-23T10:54:41.321Z,2.20
2022-09-23T10:58:06.515Z,2.30
2022-09-23T11:00:58.230Z,2.35
2022-09-23T11:04:03.934Z,3.28
2022-09-23T11:06:48.092Z,2.40
2022-09-23T11:09:32.405Z,2.10
2022-09-23T11:12:03.409Z,1.88
2022-09-23T11:15:02.100Z,2.42
2022-09-23T11:18:09.687Z,2.60
2022-09-23T11:21:13.968Z,2.70
2022-09-23T11:24:15.350Z,2.20
2022-09-23T11:27:26.127Z,2.05
2022-09-23T11:30:21.714Z,2.50
2022-09-23T11:32:57.474Z,2.50
2022-09-23T11:35:27.441Z,2.78
2022-09-23T11:38:02.800Z,3.10
2022-09-23T11:40:36.750Z,2.67
2022-09-23T11:43:22.670Z,2.35
2022-09-23T11:45:59.463Z,2.58
2022-09-23T11:48:55.234Z,2.70
2022-09-23T11:51:29.096Z,3.15
2022-09-23T11:54:17.205Z,2.70
2022-09-23T11:56:52.584Z,2.83
2022-09-23T12:02:42.248Z,2.63
2022-09-23T12:05:15.144Z,2.83
2022-09-23T12:12:17.009Z,2.80
2022-09-23T12:14:56.948Z,2.40
2022-09-23T12:17:42.263Z,2.53
2022-09-23T12:20:15.359Z,2.90
2022-09-23T12:22:54.170Z,2.50
2022-09-23T12:25:45.700Z,2.42
2022-09-23T12:28:20.352Z,2.65
2022-09-23T12:30:50.248Z,2.80
2022-09-23T12:33:26.861Z,2.78
2022-09-23T12:36:08.352Z,2.60
2022-09-23T12:38:45.896Z,3.20
2022-09-23T12:41:40.124Z,2.30
2022-09-23T12:44:36.075Z,2.88
2022-09-23T12:47:20.484Z,2.03
2022-09-23T12:49:48.830Z,2.20
2022-09-23T12:52:15.625Z,2.33
2022-09-23T12:54:58.314Z,2.45
2022-09-23T12:57:35.422Z,3.70
2022-09-23T13:00:14.677Z,2.70
2022-09-23T13:03:21.848Z,2.38
2022-09-23T13:06:11.250Z,2.30
2022-09-23T13:08:44.205Z,2.30
2022-09-23T13:11:24.509Z,2.10
2022-09-23T13:13:53.983Z,1.95
2022-09-23T13:16:32.170Z,2.20
2022-09-23T13:19:05.931Z,2.60
2022-09-23T13:21:43.797Z,2.50
2022-09-23T13:24:12.655Z,5.95
2022-09-23T13:26:56.490Z,2.88
2022-09-23T13:29:27.984Z,1.98
2022-09-23T13:31:56.977Z,2.30
2022-09-23T13:34:29.778Z,1.90
2022-09-23T13:36:56.369Z,2.13
2022-09-23T13:39:27.881Z,2.05
2022-09-23T13:42:04.209Z,2.00
2022-09-23T13:44:31.005Z,1.90
2022-09-23T13:47:02.581Z,1.90
2022-09-23T13:49:35.167Z,2.90
2022-09-23T13:52:03.029Z,1.60
2022-09-23T13:54:48.544Z,1.73
2022-09-23T13:57:28.709Z,1.80
2022-09-23T14:02:42.090Z,1.80
2022-09-23T14:05:24.082Z,1.83
2022-09-23T14:07:55.346Z,1.67
2022-09-23T14:10:26.993Z,2.13
2022-09-23T14:12:55.719Z,3.22
2022-09-23T14:15:26.812Z,2.00
2022-09-23T14:18:07.639Z,1.92
2022-09-23T14:24:37.038Z,1.70
2022-09-23T14:27:06.577Z,2.10
2022-09-23T14:29:46.087Z,1.90
2022-09-23T14:32:28.919Z,2.25
2022-09-23T14:35:03.658Z,22.55
2022-09-23T14:37:55.320Z,2.95
2022-09-23T14:40:25.968Z,3.25
2022-09-23T14:43:29.833Z,2.42
2022-09-23T14:45:58.318Z,2.40
2022-09-23T14:48:31.847Z,2.08
2022-09-23T14:51:07.409Z,2.80
2022-09-23T14:53:42.866Z,3.55
2022-09-23T14:56:23.018Z,3.83
2022-09-23T14:58:59.074Z,10.80
2022-09-23T15:01:35.517Z,4.25
2022-09-23T15:04:19.706Z,3.50
2022-09-23T15:06:54.981Z,2.40
2022-09-23T15:09:38.160Z,3.08
2022-09-23T15:12:12.644Z,2.08
2022-09-23T15:14:51.522Z,3.05
2022-09-23T15:17:32.079Z,2.10
2022-09-23T15:20:04.827Z,6.70
2022-09-23T15:22:55.091Z,4.80
2022-09-23T15:25:54.378Z,2.38
2022-09-23T15:37:17.354Z,2.80
2022-09-23T15:39:47.504Z,6.22
2022-09-23T15:42:14.477Z,4.47
2022-09-23T15:44:41.172Z,3.60
2022-09-23T15:47:16.499Z,6.60
2022-09-23T15:49:46.470Z,3.03
2022-09-23T15:52:20.207Z,3.90
2022-09-23T15:54:50.062Z,2.47
2022-09-23T15:57:17.987Z,2.28
2022-09-23T15:59:45.100Z,2.60
2022-09-23T16:02:23.563Z,2.65
2022-09-23T16:04:52.687Z,2.60
2022-09-23T16:07:22.282Z,2.95
2022-09-23T16:09:54.842Z,3.30
2022-09-23T16:12:22.553Z,3.00
2022-09-23T16:14:52.218Z,2.97
2022-09-23T16:17:18.962Z,3.13
2022-09-23T16:19:45.777Z,2.65
2022-09-23T16:22:15.867Z,3.08
2022-09-23T16:28:03.831Z,4.25
2022-09-23T16:30:33.088Z,4.78
2022-09-23T16:33:01.358Z,9.80
2022-09-23T16:35:32.874Z,8.38
2022-09-23T16:38:01.880Z,11.20
2022-09-23T16:40:31.834Z,8.48
2022-09-23T16:43:04.726Z,5.40
2022-09-23T16:45:33.172Z,4.82
2022-09-23T16:48:02.044Z,5.35
2022-09-23T16:50:33.732Z,4.28
2022-09-23T16:53:03.704Z,3.63
2022-09-23T16:55:30.597Z,3.42
2022-09-23T16:58:01.611Z,3.10
2022-09-23T17:03:41.434Z,5.43
2022-09-23T17:06:12.255Z,7.43
2022-09-23T17:08:40.098Z,8.63
2022-09-23T17:11:16.264Z,5.90
2022-09-23T17:13:52.730Z,9.60
2022-09-23T17:16:25.203Z,13.15
2022-09-23T17:18:55.197Z,20.90
2022-09-23T17:21:29.599Z,20.00
2022-09-23T17:23:57.183Z,41.65
2022-09-23T17:26:25.867Z,45.90
2022-09-23T17:28:55.341Z,14.43
2022-09-23T17:31:24.409Z,5.97
2022-09-23T17:33:52.159Z,8.02
2022-09-23T17:36:19.689Z,14.70
2022-09-23T17:38:48.328Z,17.92
2022-09-23T17:41:22.661Z,7.38
2022-09-23T17:43:56.369Z,5.03
2022-09-23T17:46:23.964Z,3.13
2022-09-23T17:48:55.109Z,3.90
2022-09-23T17:51:26.448Z,4.50
2022-09-23T17:54:03.299Z,6.00
2022-09-23T17:56:34.434Z,6.60
2022-09-23T17:59:02.173Z,7.18
2022-09-23T18:01:29.812Z,6.60
2022-09-23T18:04:01.101Z,5.05
2022-09-23T18:06:53.808Z,4.30
2022-09-23T18:09:33.941Z,4.40
2022-09-23T18:12:02.152Z,8.15
2022-09-23T18:14:33.198Z,10.00
2022-09-23T18:17:04.054Z,4.70
2022-09-23T18:19:31.101Z,3.35
2022-09-23T18:21:57.947Z,8.10
2022-09-23T18:24:32.352Z,6.72
2022-09-23T18:27:05.714Z,3.83
2022-09-23T18:29:37.574Z,4.30
2022-09-23T18:32:13.815Z,2.70
2022-09-23T18:34:42.679Z,3.20
2022-09-23T18:37:15.728Z,3.08
2022-09-23T18:39:43.128Z,3.00
2022-09-23T18:42:10.544Z,2.78
2022-09-23T18:44:39.457Z,4.32
2022-09-23T18:47:28.847Z,9.35
2022-09-23T18:56:14.023Z,4.82
2022-09-23T18:58:50.897Z,6.63
2022-09-23T19:01:20.266Z,8.00
2022-09-23T19:03:47.473Z,8.02
2022-09-23T19:06:21.727Z,4.72
2022-09-23T19:08:56.927Z,5.35
2022-09-23T19:11:33.076Z,4.50
2022-09-23T19:14:11.782Z,4.88
2022-09-23T19:16:41.613Z,7.18
2022-09-23T19:19:10.806Z,9.38
2022-09-23T19:21:37.906Z,8.18
2022-09-23T19:24:07.681Z,7.72
2022-09-23T19:26:37.993Z,5.95
2022-09-23T19:29:07.400Z,4.03
2022-09-23T19:31:39.609Z,4.65
2022-09-23T19:34:12.681Z,3.92
2022-09-23T19:36:45.546Z,5.90
2022-09-23T19:39:30.376Z,4.35
2022-09-23T19:41:58.154Z,3.60
2022-09-23T19:44:30.234Z,9.85
2022-09-23T19:47:22.699Z,10.75
2022-09-23T19:50:04.539Z,11.25
2022-09-23T19:52:37.520Z,14.98
2022-09-23T19:55:05.902Z,4.78
2022-09-23T19:57:33.420Z,3.60
2022-09-23T20:00:00.556Z,3.38
2022-09-23T20:02:27.718Z,4.45
2022-09-23T20:04:58.359Z,4.22
2022-09-23T20:07:33.298Z,3.85
2022-09-23T20:10:00.194Z,4.30
2022-09-23T20:12:26.845Z,4.28
2022-09-23T20:14:58.238Z,3.72
2022-09-23T20:17:50.979Z,3.65
2022-09-23T20:20:19.394Z,3.65
2022-09-23T20:22:54.403Z,3.58
2022-09-23T20:27:51.346Z,4.53
2022-09-23T20:30:18.737Z,4.18
2022-09-23T20:32:49.270Z,3.70
2022-09-23T20:35:20.975Z,5.07
2022-09-23T20:37:52.927Z,3.75
2022-09-23T20:40:22.348Z,3.72
2022-09-23T20:42:52.200Z,3.55
2022-09-23T20:45:22.309Z,3.63
2022-09-23T20:47:52.502Z,3.33
2022-09-23T20:50:24.675Z,3.40
2022-09-23T20:52:55.545Z,3.72
2022-09-23T20:55:29.817Z,4.75
2022-09-23T20:58:17.272Z,4.40
2022-09-23T21:00:44.005Z,3.38
2022-09-23T21:03:11.354Z,3.78
2022-09-23T21:05:41.340Z,4.47
2022-09-23T21:08:19.854Z,5.22
2022-09-23T21:11:02.438Z,6.50
2022-09-23T21:13:30.432Z,5.55
2022-09-23T21:16:04.583Z,5.47
2022-09-23T21:19:00.407Z,3.60
2022-09-23T21:21:27.544Z,4.22
2022-09-23T21:24:24.472Z,4.43
2022-09-23T21:26:52.482Z,3.88
2022-09-23T21:29:20.228Z,3.88
2022-09-23T21:31:56.800Z,3.33
2022-09-23T21:34:27.374Z,2.80
2022-09-23T21:37:00.385Z,2.95
2022-09-23T21:39:29.386Z,1.80
2022-09-23T21:41:58.509Z,2.13
2022-09-23T21:44:56.947Z,1.80
2022-09-23T21:47:28.272Z,1.83
2022-09-23T21:49:55.122Z,1.70
2022-09-23T21:52:23.502Z,1.63
2022-09-23T21:54:54.004Z,1.50
2022-09-23T21:57:25.106Z,2.10
2022-09-23T21:59:53.406Z,1.92
2022-09-23T22:02:23.628Z,1.90
2022-09-23T22:04:50.298Z,1.80
2022-09-23T22:07:19.279Z,1.52
2022-09-23T22:09:48.473Z,1.58
2022-09-23T22:12:21.526Z,1.42
2022-09-23T22:14:51.450Z,1.73
2022-09-23T22:17:20.425Z,1.50
2022-09-23T22:19:48.087Z,1.63
2022-09-23T22:22:16.809Z,1.45
2022-09-23T22:24:45.646Z,1.67
2022-09-23T22:27:19.072Z,1.33
2022-09-23T22:30:29.277Z,1.40
2022-09-23T22:33:01.135Z,1.70
2022-09-23T22:35:30.816Z,1.33
2022-09-23T22:37:59.773Z,1.48
2022-09-23T22:40:28.996Z,1.27
2022-09-23T22:42:56.126Z,1.63
2022-09-23T22:45:25.622Z,1.52
2022-09-23T22:48:21.621Z,1.63
2022-09-23T22:50:50.921Z,1.73
2022-09-23T22:53:18.041Z,1.52
2022-09-23T22:56:24.302Z,1.52
2022-09-23T23:25:00.380Z,1.60
2022-09-23T23:27:27.096Z,1.33
2022-09-23T23:29:54.909Z,1.77
2022-09-23T23:32:21.528Z,1.85
2022-09-23T23:34:50.616Z,1.63
2022-09-23T23:37:22.067Z,1.70
2022-09-23T23:40:01.580Z,1.60
2022-09-23T23:42:30.679Z,1.60
2022-09-23T23:44:57.318Z,1.65
2022-09-23T23:47:30.647Z,1.75
2022-09-23T23:49:57.532Z,1.70
2022-09-23T23:52:24.185Z,1.85
2022-09-23T23:54:50.846Z,2.08
2022-09-23T23:57:18.475Z,1.73
